sensor_id;sensor_type;location;lat;lon;timestamp;P1;durP1;ratioP1;P2;durP2;ratioP2
11338;SDS011;5724;42.684;23.252;2023-03-03T00:00:57;4.30;;;3.97;;
11338;SDS011;5724;42.684;23.252;2023-03-03T00:03:23;4.23;;;4.03;;
11338;SDS011;5724;42.684;23.252;2023-03-03T00:05:49;4.37;;;4.07;;
11338;SDS011;5724;42.684;23.252;2023-03-03T00:08:15;4.30;;;4.10;;
11338;SDS011;5724;42.684;23.252;2023-03-03T00:10:41;3.90;;;3.70;;
11338;SDS011;5724;42.684;23.252;2023-03-03T00:13:14;3.80;;;3.60;;
11338;SDS011;5724;42.684;23.252;2023-03-03T00:15:47;4.30;;;3.97;;
11338;SDS011;5724;42.684;23.252;2023-03-03T00:18:18;4.27;;;4.07;;
11338;SDS011;5724;42.684;23.252;2023-03-03T00:21:00;4.03;;;3.83;;
11338;SDS011;5724;42.684;23.252;2023-03-03T00:23:37;4.50;;;3.67;;
11338;SDS011;5724;42.684;23.252;2023-03-03T00:26:26;3.93;;;3.73;;
11338;SDS011;5724;42.684;23.252;2023-03-03T00:28:55;3.57;;;3.37;;
11338;SDS011;5724;42.684;23.252;2023-03-03T00:31:39;3.67;;;3.47;;
11338;SDS011;5724;42.684;23.252;2023-03-03T00:36:43;3.67;;;3.47;;
11338;SDS011;5724;42.684;23.252;2023-03-03T00:42:13;3.50;;;3.30;;
11338;SDS011;5724;42.684;23.252;2023-03-03T00:44:41;3.80;;;3.60;;
11338;SDS011;5724;42.684;23.252;2023-03-03T00:47:30;4.40;;;4.13;;
11338;SDS011;5724;42.684;23.252;2023-03-03T00:52:29;4.40;;;4.10;;
11338;SDS011;5724;42.684;23.252;2023-03-03T00:54:59;4.43;;;4.23;;
11338;SDS011;5724;42.684;23.252;2023-03-03T00:57:24;4.53;;;4.23;;
11338;SDS011;5724;42.684;23.252;2023-03-03T00:59:50;4.30;;;4.10;;
11338;SDS011;5724;42.684;23.252;2023-03-03T01:02:15;4.90;;;4.70;;
11338;SDS011;5724;42.684;23.252;2023-03-03T01:04:41;4.90;;;4.60;;
11338;SDS011;5724;42.684;23.252;2023-03-03T01:07:12;4.60;;;4.40;;
11338;SDS011;5724;42.684;23.252;2023-03-03T01:09:38;5.30;;;5.00;;
11338;SDS011;5724;42.684;23.252;2023-03-03T01:12:04;4.80;;;4.60;;
11338;SDS011;5724;42.684;23.252;2023-03-03T01:14:30;5.40;;;5.10;;
11338;SDS011;5724;42.684;23.252;2023-03-03T01:16:56;4.87;;;4.57;;
11338;SDS011;5724;42.684;23.252;2023-03-03T01:19:22;5.27;;;4.97;;
11338;SDS011;5724;42.684;23.252;2023-03-03T01:21:47;5.50;;;5.13;;
11338;SDS011;5724;42.684;23.252;2023-03-03T01:24:13;5.33;;;4.93;;
11338;SDS011;5724;42.684;23.252;2023-03-03T01:26:38;5.73;;;5.37;;
11338;SDS011;5724;42.684;23.252;2023-03-03T01:29:04;5.67;;;5.37;;
11338;SDS011;5724;42.684;23.252;2023-03-03T01:31:29;6.03;;;5.50;;
11338;SDS011;5724;42.684;23.252;2023-03-03T01:33:55;6.10;;;5.40;;
11338;SDS011;5724;42.684;23.252;2023-03-03T01:36:24;6.83;;;6.13;;
11338;SDS011;5724;42.684;23.252;2023-03-03T01:38:50;7.63;;;5.73;;
11338;SDS011;5724;42.684;23.252;2023-03-03T01:41:16;6.60;;;5.57;;
11338;SDS011;5724;42.684;23.252;2023-03-03T01:43:42;5.37;;;4.87;;
11338;SDS011;5724;42.684;23.252;2023-03-03T01:48:56;5.27;;;4.97;;
11338;SDS011;5724;42.684;23.252;2023-03-03T01:52:09;4.90;;;4.70;;
11338;SDS011;5724;42.684;23.252;2023-03-03T01:54:26;5.20;;;4.90;;
11338;SDS011;5724;42.684;23.252;2023-03-03T01:56:58;5.27;;;4.97;;
11338;SDS011;5724;42.684;23.252;2023-03-03T01:59:28;5.20;;;4.90;;
11338;SDS011;5724;42.684;23.252;2023-03-03T02:02:01;5.03;;;4.83;;
11338;SDS011;5724;42.684;23.252;2023-03-03T02:04:27;5.13;;;4.83;;
11338;SDS011;5724;42.684;23.252;2023-03-03T02:06:56;5.43;;;5.07;;
11338;SDS011;5724;42.684;23.252;2023-03-03T02:09:36;5.27;;;4.97;;
11338;SDS011;5724;42.684;23.252;2023-03-03T02:12:04;5.67;;;5.37;;
11338;SDS011;5724;42.684;23.252;2023-03-03T02:14:33;5.83;;;5.53;;
11338;SDS011;5724;42.684;23.252;2023-03-03T02:16:59;5.83;;;5.53;;
11338;SDS011;5724;42.684;23.252;2023-03-03T02:22:08;5.37;;;5.07;;
11338;SDS011;5724;42.684;23.252;2023-03-03T02:24:55;5.20;;;4.90;;
11338;SDS011;5724;42.684;23.252;2023-03-03T02:27:24;5.23;;;4.93;;
11338;SDS011;5724;42.684;23.252;2023-03-03T02:29:51;8.27;;;7.53;;
11338;SDS011;5724;42.684;23.252;2023-03-03T02:32:17;9.60;;;8.67;;
11338;SDS011;5724;42.684;23.252;2023-03-03T02:34:51;18.83;;;14.83;;
11338;SDS011;5724;42.684;23.252;2023-03-03T02:37:17;7.20;;;6.70;;
11338;SDS011;5724;42.684;23.252;2023-03-03T02:39:44;6.10;;;5.63;;
11338;SDS011;5724;42.684;23.252;2023-03-03T02:42:21;5.20;;;4.90;;
11338;SDS011;5724;42.684;23.252;2023-03-03T02:44:51;5.30;;;5.00;;
11338;SDS011;5724;42.684;23.252;2023-03-03T02:47:17;5.07;;;4.67;;
11338;SDS011;5724;42.684;23.252;2023-03-03T02:49:42;4.90;;;4.60;;
11338;SDS011;5724;42.684;23.252;2023-03-03T02:52:08;4.93;;;4.63;;
11338;SDS011;5724;42.684;23.252;2023-03-03T02:54:35;4.90;;;4.60;;
11338;SDS011;5724;42.684;23.252;2023-03-03T02:57:01;5.03;;;4.63;;
11338;SDS011;5724;42.684;23.252;2023-03-03T02:59:27;4.67;;;4.37;;
11338;SDS011;5724;42.684;23.252;2023-03-03T03:01:53;5.07;;;4.77;;
11338;SDS011;5724;42.684;23.252;2023-03-03T03:04:20;5.23;;;4.93;;
11338;SDS011;5724;42.684;23.252;2023-03-03T03:06:47;5.00;;;4.70;;
11338;SDS011;5724;42.684;23.252;2023-03-03T03:09:13;5.30;;;5.00;;
11338;SDS011;5724;42.684;23.252;2023-03-03T03:11:40;4.90;;;4.60;;
11338;SDS011;5724;42.684;23.252;2023-03-03T03:14:07;5.07;;;4.77;;
11338;SDS011;5724;42.684;23.252;2023-03-03T03:16:34;4.53;;;4.23;;
11338;SDS011;5724;42.684;23.252;2023-03-03T03:19:00;5.10;;;4.80;;
11338;SDS011;5724;42.684;23.252;2023-03-03T03:21:26;5.10;;;4.80;;
11338;SDS011;5724;42.684;23.252;2023-03-03T03:23:52;4.70;;;4.40;;
11338;SDS011;5724;42.684;23.252;2023-03-03T03:26:18;5.50;;;5.00;;
11338;SDS011;5724;42.684;23.252;2023-03-03T03:28:47;5.57;;;5.27;;
11338;SDS011;5724;42.684;23.252;2023-03-03T03:31:14;5.80;;;5.50;;
11338;SDS011;5724;42.684;23.252;2023-03-03T03:33:40;5.77;;;5.47;;
11338;SDS011;5724;42.684;23.252;2023-03-03T03:36:05;5.97;;;5.67;;
11338;SDS011;5724;42.684;23.252;2023-03-03T03:38:31;6.33;;;5.93;;
11338;SDS011;5724;42.684;23.252;2023-03-03T03:40:58;6.13;;;5.80;;
11338;SDS011;5724;42.684;23.252;2023-03-03T03:43:24;6.60;;;6.20;;
11338;SDS011;5724;42.684;23.252;2023-03-03T03:45:50;6.30;;;5.70;;
11338;SDS011;5724;42.684;23.252;2023-03-03T03:48:16;7.40;;;6.77;;
11338;SDS011;5724;42.684;23.252;2023-03-03T03:50:44;6.30;;;5.90;;
11338;SDS011;5724;42.684;23.252;2023-03-03T03:53:11;5.90;;;5.60;;
11338;SDS011;5724;42.684;23.252;2023-03-03T03:55:36;6.57;;;6.07;;
11338;SDS011;5724;42.684;23.252;2023-03-03T03:58:02;6.60;;;6.20;;
11338;SDS011;5724;42.684;23.252;2023-03-03T04:00:27;6.53;;;6.03;;
11338;SDS011;5724;42.684;23.252;2023-03-03T04:02:53;7.47;;;6.87;;
11338;SDS011;5724;42.684;23.252;2023-03-03T04:05:18;7.63;;;6.67;;
11338;SDS011;5724;42.684;23.252;2023-03-03T04:07:44;7.13;;;6.53;;
11338;SDS011;5724;42.684;23.252;2023-03-03T04:10:09;7.67;;;7.20;;
11338;SDS011;5724;42.684;23.252;2023-03-03T04:12:35;7.23;;;6.73;;
11338;SDS011;5724;42.684;23.252;2023-03-03T04:15:10;7.83;;;7.17;;
11338;SDS011;5724;42.684;23.252;2023-03-03T04:17:37;7.63;;;7.07;;
11338;SDS011;5724;42.684;23.252;2023-03-03T04:20:04;7.70;;;7.10;;
11338;SDS011;5724;42.684;23.252;2023-03-03T04:22:30;8.50;;;7.73;;
11338;SDS011;5724;42.684;23.252;2023-03-03T04:25:01;8.20;;;7.50;;
11338;SDS011;5724;42.684;23.252;2023-03-03T04:27:32;9.33;;;8.33;;
11338;SDS011;5724;42.684;23.252;2023-03-03T04:29:58;8.97;;;8.10;;
11338;SDS011;5724;42.684;23.252;2023-03-03T04:32:24;8.13;;;7.53;;
11338;SDS011;5724;42.684;23.252;2023-03-03T04:34:50;8.03;;;7.43;;
11338;SDS011;5724;42.684;23.252;2023-03-03T04:37:15;8.20;;;7.67;;
11338;SDS011;5724;42.684;23.252;2023-03-03T04:39:41;8.40;;;7.70;;
11338;SDS011;5724;42.684;23.252;2023-03-03T04:42:06;8.80;;;8.10;;
11338;SDS011;5724;42.684;23.252;2023-03-03T04:44:32;8.87;;;8.17;;
11338;SDS011;5724;42.684;23.252;2023-03-03T04:46:57;9.13;;;8.33;;
11338;SDS011;5724;42.684;23.252;2023-03-03T04:49:23;8.77;;;8.13;;
11338;SDS011;5724;42.684;23.252;2023-03-03T04:51:48;8.60;;;7.97;;
11338;SDS011;5724;42.684;23.252;2023-03-03T04:54:14;8.50;;;7.90;;
11338;SDS011;5724;42.684;23.252;2023-03-03T04:56:39;8.80;;;8.10;;
11338;SDS011;5724;42.684;23.252;2023-03-03T04:59:05;10.60;;;9.70;;
11338;SDS011;5724;42.684;23.252;2023-03-03T05:01:30;10.27;;;9.37;;
11338;SDS011;5724;42.684;23.252;2023-03-03T05:03:55;10.07;;;9.23;;
11338;SDS011;5724;42.684;23.252;2023-03-03T05:06:21;9.70;;;8.90;;
11338;SDS011;5724;42.684;23.252;2023-03-03T05:08:46;9.37;;;8.57;;
11338;SDS011;5724;42.684;23.252;2023-03-03T05:11:12;9.03;;;8.33;;
11338;SDS011;5724;42.684;23.252;2023-03-03T05:13:38;9.27;;;8.57;;
11338;SDS011;5724;42.684;23.252;2023-03-03T05:16:03;11.27;;;10.27;;
11338;SDS011;5724;42.684;23.252;2023-03-03T05:18:29;9.80;;;8.83;;
11338;SDS011;5724;42.684;23.252;2023-03-03T05:20:55;8.70;;;8.10;;
11338;SDS011;5724;42.684;23.252;2023-03-03T05:23:20;9.57;;;8.77;;
11338;SDS011;5724;42.684;23.252;2023-03-03T05:25:46;9.40;;;8.60;;
11338;SDS011;5724;42.684;23.252;2023-03-03T05:28:12;9.57;;;8.77;;
11338;SDS011;5724;42.684;23.252;2023-03-03T05:30:38;9.07;;;8.30;;
11338;SDS011;5724;42.684;23.252;2023-03-03T05:33:04;10.13;;;8.77;;
11338;SDS011;5724;42.684;23.252;2023-03-03T05:35:30;9.90;;;8.93;;
11338;SDS011;5724;42.684;23.252;2023-03-03T05:37:56;10.53;;;9.63;;
11338;SDS011;5724;42.684;23.252;2023-03-03T05:40:22;9.60;;;8.80;;
11338;SDS011;5724;42.684;23.252;2023-03-03T05:42:49;9.00;;;8.40;;
11338;SDS011;5724;42.684;23.252;2023-03-03T05:45:15;8.77;;;8.07;;
11338;SDS011;5724;42.684;23.252;2023-03-03T05:47:44;8.57;;;8.07;;
11338;SDS011;5724;42.684;23.252;2023-03-03T05:50:10;9.77;;;9.00;;
11338;SDS011;5724;42.684;23.252;2023-03-03T05:52:36;10.20;;;9.30;;
11338;SDS011;5724;42.684;23.252;2023-03-03T05:55:02;9.67;;;8.87;;
11338;SDS011;5724;42.684;23.252;2023-03-03T05:57:28;9.77;;;8.87;;
11338;SDS011;5724;42.684;23.252;2023-03-03T05:59:53;10.60;;;9.63;;
11338;SDS011;5724;42.684;23.252;2023-03-03T06:02:19;9.80;;;8.97;;
11338;SDS011;5724;42.684;23.252;2023-03-03T06:04:44;10.30;;;9.30;;
11338;SDS011;5724;42.684;23.252;2023-03-03T06:07:10;10.73;;;9.90;;
11338;SDS011;5724;42.684;23.252;2023-03-03T06:09:35;11.37;;;10.37;;
11338;SDS011;5724;42.684;23.252;2023-03-03T06:12:01;14.33;;;12.97;;
11338;SDS011;5724;42.684;23.252;2023-03-03T06:14:26;12.87;;;11.57;;
11338;SDS011;5724;42.684;23.252;2023-03-03T06:16:52;11.60;;;10.47;;
11338;SDS011;5724;42.684;23.252;2023-03-03T06:19:17;11.27;;;10.23;;
11338;SDS011;5724;42.684;23.252;2023-03-03T06:21:42;11.23;;;10.23;;
11338;SDS011;5724;42.684;23.252;2023-03-03T06:24:08;12.50;;;11.40;;
11338;SDS011;5724;42.684;23.252;2023-03-03T06:26:34;11.90;;;10.80;;
11338;SDS011;5724;42.684;23.252;2023-03-03T06:28:59;11.63;;;10.63;;
11338;SDS011;5724;42.684;23.252;2023-03-03T06:31:25;13.10;;;11.73;;
11338;SDS011;5724;42.684;23.252;2023-03-03T06:33:52;14.27;;;11.93;;
11338;SDS011;5724;42.684;23.252;2023-03-03T06:36:18;12.03;;;10.83;;
11338;SDS011;5724;42.684;23.252;2023-03-03T06:38:44;11.70;;;10.67;;
11338;SDS011;5724;42.684;23.252;2023-03-03T06:41:09;12.30;;;10.00;;
11338;SDS011;5724;42.684;23.252;2023-03-03T06:43:35;10.27;;;9.43;;
11338;SDS011;5724;42.684;23.252;2023-03-03T06:46:01;10.20;;;9.40;;
11338;SDS011;5724;42.684;23.252;2023-03-03T06:48:27;10.53;;;9.43;;
11338;SDS011;5724;42.684;23.252;2023-03-03T06:50:53;10.67;;;9.87;;
11338;SDS011;5724;42.684;23.252;2023-03-03T06:53:19;10.23;;;9.43;;
11338;SDS011;5724;42.684;23.252;2023-03-03T06:55:44;10.87;;;9.80;;
11338;SDS011;5724;42.684;23.252;2023-03-03T06:58:12;13.60;;;11.70;;
11338;SDS011;5724;42.684;23.252;2023-03-03T07:00:55;26.60;;;21.50;;
11338;SDS011;5724;42.684;23.252;2023-03-03T07:03:22;26.17;;;17.70;;
11338;SDS011;5724;42.684;23.252;2023-03-03T07:05:49;11.47;;;10.37;;
11338;SDS011;5724;42.684;23.252;2023-03-03T07:08:20;11.53;;;10.07;;
11338;SDS011;5724;42.684;23.252;2023-03-03T07:10:48;9.33;;;8.60;;
11338;SDS011;5724;42.684;23.252;2023-03-03T07:13:21;8.80;;;8.13;;
11338;SDS011;5724;42.684;23.252;2023-03-03T07:15:49;8.40;;;7.80;;
11338;SDS011;5724;42.684;23.252;2023-03-03T07:21:33;8.43;;;7.83;;
11338;SDS011;5724;42.684;23.252;2023-03-03T07:24:01;8.77;;;7.97;;
11338;SDS011;5724;42.684;23.252;2023-03-03T07:26:42;9.27;;;8.57;;
11338;SDS011;5724;42.684;23.252;2023-03-03T07:31:57;11.47;;;10.47;;
11338;SDS011;5724;42.684;23.252;2023-03-03T07:34:26;12.13;;;11.10;;
11338;SDS011;5724;42.684;23.252;2023-03-03T07:37:01;13.93;;;12.63;;
11338;SDS011;5724;42.684;23.252;2023-03-03T07:39:34;12.27;;;11.20;;
11338;SDS011;5724;42.684;23.252;2023-03-03T07:44:41;13.37;;;12.13;;
11338;SDS011;5724;42.684;23.252;2023-03-03T07:49:38;24.23;;;18.87;;
11338;SDS011;5724;42.684;23.252;2023-03-03T07:52:22;11.10;;;10.10;;
11338;SDS011;5724;42.684;23.252;2023-03-03T07:54:48;12.10;;;11.10;;
11338;SDS011;5724;42.684;23.252;2023-03-03T07:59:53;10.57;;;9.67;;
11338;SDS011;5724;42.684;23.252;2023-03-03T08:05:35;14.10;;;12.70;;
11338;SDS011;5724;42.684;23.252;2023-03-03T08:10:59;10.00;;;9.20;;
11338;SDS011;5724;42.684;23.252;2023-03-03T08:16:01;10.23;;;9.30;;
11338;SDS011;5724;42.684;23.252;2023-03-03T08:18:28;10.97;;;10.13;;
11338;SDS011;5724;42.684;23.252;2023-03-03T08:20:58;10.83;;;10.03;;
11338;SDS011;5724;42.684;23.252;2023-03-03T08:23:26;10.07;;;9.23;;
11338;SDS011;5724;42.684;23.252;2023-03-03T08:25:52;9.40;;;8.63;;
11338;SDS011;5724;42.684;23.252;2023-03-03T08:28:18;9.90;;;9.10;;
11338;SDS011;5724;42.684;23.252;2023-03-03T08:30:45;9.77;;;9.17;;
11338;SDS011;5724;42.684;23.252;2023-03-03T08:33:11;10.20;;;9.40;;
11338;SDS011;5724;42.684;23.252;2023-03-03T08:35:38;10.80;;;9.57;;
11338;SDS011;5724;42.684;23.252;2023-03-03T08:38:04;10.57;;;9.77;;
11338;SDS011;5724;42.684;23.252;2023-03-03T08:40:30;9.13;;;8.30;;
11338;SDS011;5724;42.684;23.252;2023-03-03T08:42:56;10.00;;;9.10;;
11338;SDS011;5724;42.684;23.252;2023-03-03T08:45:22;9.53;;;8.87;;
11338;SDS011;5724;42.684;23.252;2023-03-03T08:47:49;9.77;;;8.97;;
11338;SDS011;5724;42.684;23.252;2023-03-03T08:50:15;8.87;;;8.17;;
11338;SDS011;5724;42.684;23.252;2023-03-03T08:52:41;8.83;;;8.23;;
11338;SDS011;5724;42.684;23.252;2023-03-03T08:55:06;9.30;;;8.60;;
11338;SDS011;5724;42.684;23.252;2023-03-03T08:57:32;9.63;;;8.93;;
11338;SDS011;5724;42.684;23.252;2023-03-03T08:59:58;9.13;;;8.30;;
11338;SDS011;5724;42.684;23.252;2023-03-03T09:02:23;8.57;;;7.97;;
11338;SDS011;5724;42.684;23.252;2023-03-03T09:04:49;8.33;;;7.73;;
11338;SDS011;5724;42.684;23.252;2023-03-03T09:07:14;8.40;;;7.90;;
11338;SDS011;5724;42.684;23.252;2023-03-03T09:09:40;9.17;;;8.47;;
11338;SDS011;5724;42.684;23.252;2023-03-03T09:12:50;10.07;;;9.27;;
11338;SDS011;5724;42.684;23.252;2023-03-03T09:14:58;10.33;;;9.53;;
11338;SDS011;5724;42.684;23.252;2023-03-03T09:17:33;10.57;;;9.77;;
11338;SDS011;5724;42.684;23.252;2023-03-03T09:20:14;9.93;;;9.17;;
11338;SDS011;5724;42.684;23.252;2023-03-03T09:22:47;10.47;;;9.77;;
11338;SDS011;5724;42.684;23.252;2023-03-03T09:27:57;10.00;;;9.30;;
11338;SDS011;5724;42.684;23.252;2023-03-03T09:32:51;10.10;;;9.30;;
11338;SDS011;5724;42.684;23.252;2023-03-03T09:37:52;11.70;;;10.70;;
11338;SDS011;5724;42.684;23.252;2023-03-03T09:40:30;11.07;;;10.17;;
11338;SDS011;5724;42.684;23.252;2023-03-03T09:49:34;11.97;;;10.97;;
11338;SDS011;5724;42.684;23.252;2023-03-03T09:52:30;10.97;;;10.07;;
11338;SDS011;5724;42.684;23.252;2023-03-03T10:00:33;10.77;;;9.97;;
11338;SDS011;5724;42.684;23.252;2023-03-03T10:05:51;11.60;;;10.63;;
11338;SDS011;5724;42.684;23.252;2023-03-03T10:08:33;12.50;;;11.50;;
11338;SDS011;5724;42.684;23.252;2023-03-03T10:11:17;12.03;;;11.03;;
11338;SDS011;5724;42.684;23.252;2023-03-03T10:22:06;18.17;;;16.57;;
11338;SDS011;5724;42.684;23.252;2023-03-03T10:27:44;17.87;;;16.17;;
11338;SDS011;5724;42.684;23.252;2023-03-03T10:30:16;17.27;;;15.70;;
11338;SDS011;5724;42.684;23.252;2023-03-03T10:42:20;24.77;;;22.13;;
11338;SDS011;5724;42.684;23.252;2023-03-03T10:52:57;18.30;;;16.33;;
11338;SDS011;5724;42.684;23.252;2023-03-03T11:04:44;18.03;;;16.33;;
11338;SDS011;5724;42.684;23.252;2023-03-03T11:10:20;17.77;;;16.07;;
11338;SDS011;5724;42.684;23.252;2023-03-03T11:21:28;20.47;;;18.37;;
11338;SDS011;5724;42.684;23.252;2023-03-03T11:30:17;20.40;;;18.40;;
11338;SDS011;5724;42.684;23.252;2023-03-03T11:36:01;21.50;;;19.40;;
11338;SDS011;5724;42.684;23.252;2023-03-03T11:38:40;18.50;;;16.87;;
11338;SDS011;5724;42.684;23.252;2023-03-03T11:44:28;18.03;;;16.23;;
11338;SDS011;5724;42.684;23.252;2023-03-03T11:47:03;18.20;;;16.47;;
11338;SDS011;5724;42.684;23.252;2023-03-03T11:54:53;18.50;;;16.73;;
11338;SDS011;5724;42.684;23.252;2023-03-03T11:58:16;17.13;;;15.43;;
11338;SDS011;5724;42.684;23.252;2023-03-03T12:13:00;13.70;;;12.50;;
11338;SDS011;5724;42.684;23.252;2023-03-03T12:15:33;14.20;;;13.00;;
11338;SDS011;5724;42.684;23.252;2023-03-03T12:23:42;14.83;;;13.43;;
11338;SDS011;5724;42.684;23.252;2023-03-03T12:31:50;11.80;;;10.80;;
11338;SDS011;5724;42.684;23.252;2023-03-03T12:40:01;5.80;;;5.50;;
11338;SDS011;5724;42.684;23.252;2023-03-03T12:46:00;3.53;;;3.40;;
11338;SDS011;5724;42.684;23.252;2023-03-03T12:54:06;3.70;;;3.40;;
11338;SDS011;5724;42.684;23.252;2023-03-03T12:56:54;3.87;;;3.67;;
11338;SDS011;5724;42.684;23.252;2023-03-03T13:02:47;3.67;;;3.57;;
11338;SDS011;5724;42.684;23.252;2023-03-03T13:10:48;4.13;;;3.83;;
11338;SDS011;5724;42.684;23.252;2023-03-03T13:13:29;3.47;;;3.33;;
11338;SDS011;5724;42.684;23.252;2023-03-03T13:16:10;3.90;;;3.70;;
11338;SDS011;5724;42.684;23.252;2023-03-03T13:18:53;3.47;;;3.17;;
11338;SDS011;5724;42.684;23.252;2023-03-03T13:21:35;8.47;;;7.77;;
11338;SDS011;5724;42.684;23.252;2023-03-03T13:32:59;5.73;;;5.43;;
11338;SDS011;5724;42.684;23.252;2023-03-03T13:38:12;5.13;;;4.83;;
11338;SDS011;5724;42.684;23.252;2023-03-03T13:43:09;4.03;;;3.83;;
11338;SDS011;5724;42.684;23.252;2023-03-03T13:48:27;4.23;;;4.03;;
11338;SDS011;5724;42.684;23.252;2023-03-03T13:51:57;9.20;;;8.53;;
11338;SDS011;5724;42.684;23.252;2023-03-03T14:02:22;3.87;;;3.67;;
11338;SDS011;5724;42.684;23.252;2023-03-03T14:08:10;4.97;;;4.67;;
11338;SDS011;5724;42.684;23.252;2023-03-03T14:15:57;10.47;;;9.97;;
11338;SDS011;5724;42.684;23.252;2023-03-03T14:18:38;13.10;;;12.10;;
11338;SDS011;5724;42.684;23.252;2023-03-03T14:24:15;8.20;;;7.50;;
11338;SDS011;5724;42.684;23.252;2023-03-03T14:31:50;4.73;;;4.50;;
11338;SDS011;5724;42.684;23.252;2023-03-03T14:36:43;7.43;;;6.93;;
11338;SDS011;5724;42.684;23.252;2023-03-03T14:42:01;6.47;;;6.17;;
11338;SDS011;5724;42.684;23.252;2023-03-03T14:44:35;6.20;;;5.90;;
11338;SDS011;5724;42.684;23.252;2023-03-03T14:47:22;7.37;;;6.97;;
11338;SDS011;5724;42.684;23.252;2023-03-03T14:49:48;7.77;;;7.27;;
11338;SDS011;5724;42.684;23.252;2023-03-03T14:54:41;7.00;;;6.60;;
11338;SDS011;5724;42.684;23.252;2023-03-03T14:57:17;12.97;;;11.83;;
11338;SDS011;5724;42.684;23.252;2023-03-03T15:02:26;6.67;;;6.37;;
11338;SDS011;5724;42.684;23.252;2023-03-03T15:05:09;6.87;;;6.47;;
11338;SDS011;5724;42.684;23.252;2023-03-03T15:07:41;8.03;;;7.43;;
11338;SDS011;5724;42.684;23.252;2023-03-03T15:10:09;10.00;;;9.00;;
11338;SDS011;5724;42.684;23.252;2023-03-03T15:12:38;8.07;;;7.37;;
11338;SDS011;5724;42.684;23.252;2023-03-03T15:17:37;7.07;;;6.60;;
11338;SDS011;5724;42.684;23.252;2023-03-03T15:42:35;20.10;;;18.47;;
11338;SDS011;5724;42.684;23.252;2023-03-03T15:51:01;15.37;;;14.03;;
11338;SDS011;5724;42.684;23.252;2023-03-03T15:53:31;16.40;;;15.00;;
11338;SDS011;5724;42.684;23.252;2023-03-03T15:56:27;15.57;;;13.53;;
11338;SDS011;5724;42.684;23.252;2023-03-03T15:59:08;15.20;;;13.93;;
11338;SDS011;5724;42.684;23.252;2023-03-03T16:04:30;14.27;;;13.17;;
11338;SDS011;5724;42.684;23.252;2023-03-03T16:20:42;9.00;;;8.30;;
11338;SDS011;5724;42.684;23.252;2023-03-03T16:23:19;10.30;;;9.47;;
11338;SDS011;5724;42.684;23.252;2023-03-03T16:26:05;9.07;;;8.50;;
11338;SDS011;5724;42.684;23.252;2023-03-03T16:31:12;10.77;;;9.77;;
11338;SDS011;5724;42.684;23.252;2023-03-03T16:36:47;12.77;;;11.63;;
11338;SDS011;5724;42.684;23.252;2023-03-03T16:39:47;8.90;;;8.07;;
11338;SDS011;5724;42.684;23.252;2023-03-03T16:55:37;10.67;;;9.77;;
11338;SDS011;5724;42.684;23.252;2023-03-03T16:58:20;11.57;;;10.50;;
11338;SDS011;5724;42.684;23.252;2023-03-03T17:04:01;13.20;;;11.90;;
11338;SDS011;5724;42.684;23.252;2023-03-03T17:06:42;13.33;;;12.23;;
11338;SDS011;5724;42.684;23.252;2023-03-03T17:09:16;12.33;;;11.30;;
11338;SDS011;5724;42.684;23.252;2023-03-03T17:17:17;15.83;;;14.17;;
11338;SDS011;5724;42.684;23.252;2023-03-03T17:22:41;24.40;;;21.73;;
11338;SDS011;5724;42.684;23.252;2023-03-03T17:25:36;17.73;;;16.03;;
11338;SDS011;5724;42.684;23.252;2023-03-03T17:38:46;10.67;;;9.67;;
11338;SDS011;5724;42.684;23.252;2023-03-03T17:44:03;8.70;;;8.07;;
11338;SDS011;5724;42.684;23.252;2023-03-03T17:47:16;10.30;;;9.37;;
11338;SDS011;5724;42.684;23.252;2023-03-03T18:03:34;7.23;;;6.80;;
11338;SDS011;5724;42.684;23.252;2023-03-03T18:06:11;8.33;;;7.73;;
11338;SDS011;5724;42.684;23.252;2023-03-03T18:11:58;9.90;;;9.17;;
11338;SDS011;5724;42.684;23.252;2023-03-03T18:23:46;11.00;;;10.10;;
11338;SDS011;5724;42.684;23.252;2023-03-03T18:28:46;11.23;;;10.17;;
11338;SDS011;5724;42.684;23.252;2023-03-03T18:31:24;13.83;;;12.57;;
11338;SDS011;5724;42.684;23.252;2023-03-03T18:33:59;11.17;;;10.27;;
11338;SDS011;5724;42.684;23.252;2023-03-03T18:38:57;11.23;;;10.33;;
11338;SDS011;5724;42.684;23.252;2023-03-03T18:41:26;12.10;;;11.00;;
11338;SDS011;5724;42.684;23.252;2023-03-03T18:43:55;8.03;;;7.43;;
11338;SDS011;5724;42.684;23.252;2023-03-03T18:48:49;12.80;;;11.60;;
11338;SDS011;5724;42.684;23.252;2023-03-03T18:53:59;12.17;;;11.07;;
11338;SDS011;5724;42.684;23.252;2023-03-03T18:56:44;11.60;;;10.50;;
11338;SDS011;5724;42.684;23.252;2023-03-03T18:59:09;16.73;;;14.83;;
11338;SDS011;5724;42.684;23.252;2023-03-03T19:18:02;14.17;;;12.67;;
11338;SDS011;5724;42.684;23.252;2023-03-03T19:20:42;13.33;;;11.97;;
11338;SDS011;5724;42.684;23.252;2023-03-03T19:23:16;11.30;;;10.40;;
11338;SDS011;5724;42.684;23.252;2023-03-03T19:25:44;11.50;;;10.40;;
11338;SDS011;5724;42.684;23.252;2023-03-03T19:36:18;9.83;;;9.03;;
11338;SDS011;5724;42.684;23.252;2023-03-03T19:44:53;10.73;;;9.83;;
11338;SDS011;5724;42.684;23.252;2023-03-03T19:47:38;12.07;;;10.97;;
11338;SDS011;5724;42.684;23.252;2023-03-03T20:12:28;11.40;;;10.27;;
11338;SDS011;5724;42.684;23.252;2023-03-03T20:15:06;11.97;;;10.80;;
11338;SDS011;5724;42.684;23.252;2023-03-03T20:42:02;9.23;;;8.47;;
11338;SDS011;5724;42.684;23.252;2023-03-03T21:02:27;10.03;;;9.13;;
11338;SDS011;5724;42.684;23.252;2023-03-03T21:04:34;10.30;;;9.40;;
11338;SDS011;5724;42.684;23.252;2023-03-03T21:07:01;10.47;;;9.67;;
11338;SDS011;5724;42.684;23.252;2023-03-03T21:09:31;11.37;;;10.40;;
11338;SDS011;5724;42.684;23.252;2023-03-03T21:12:09;10.80;;;9.90;;
11338;SDS011;5724;42.684;23.252;2023-03-03T21:15:02;11.33;;;10.50;;
11338;SDS011;5724;42.684;23.252;2023-03-03T21:17:31;11.37;;;10.50;;
11338;SDS011;5724;42.684;23.252;2023-03-03T21:22:56;15.07;;;13.27;;
11338;SDS011;5724;42.684;23.252;2023-03-03T21:38:58;14.97;;;13.63;;
11338;SDS011;5724;42.684;23.252;2023-03-03T21:41:26;15.30;;;13.90;;
11338;SDS011;5724;42.684;23.252;2023-03-03T21:43:52;15.43;;;14.00;;
11338;SDS011;5724;42.684;23.252;2023-03-03T21:46:22;15.07;;;13.67;;
11338;SDS011;5724;42.684;23.252;2023-03-03T21:48:49;15.60;;;14.13;;
11338;SDS011;5724;42.684;23.252;2023-03-03T21:51:15;15.63;;;14.27;;
11338;SDS011;5724;42.684;23.252;2023-03-03T21:53:41;19.07;;;17.23;;
11338;SDS011;5724;42.684;23.252;2023-03-03T21:56:10;16.40;;;14.80;;
11338;SDS011;5724;42.684;23.252;2023-03-03T21:58:38;18.87;;;17.00;;
11338;SDS011;5724;42.684;23.252;2023-03-03T22:01:04;18.63;;;16.83;;
11338;SDS011;5724;42.684;23.252;2023-03-03T22:03:31;19.07;;;17.17;;
11338;SDS011;5724;42.684;23.252;2023-03-03T22:05:57;19.20;;;16.63;;
11338;SDS011;5724;42.684;23.252;2023-03-03T22:08:22;18.37;;;16.53;;
11338;SDS011;5724;42.684;23.252;2023-03-03T22:10:49;18.77;;;16.83;;
11338;SDS011;5724;42.684;23.252;2023-03-03T22:13:18;19.10;;;17.17;;
11338;SDS011;5724;42.684;23.252;2023-03-03T22:15:45;19.87;;;17.80;;
11338;SDS011;5724;42.684;23.252;2023-03-03T22:18:11;20.40;;;18.20;;
11338;SDS011;5724;42.684;23.252;2023-03-03T22:20:37;19.63;;;17.53;;
11338;SDS011;5724;42.684;23.252;2023-03-03T22:23:02;21.27;;;19.00;;
11338;SDS011;5724;42.684;23.252;2023-03-03T22:25:28;20.73;;;18.53;;
11338;SDS011;5724;42.684;23.252;2023-03-03T22:27:53;20.40;;;18.30;;
11338;SDS011;5724;42.684;23.252;2023-03-03T22:30:19;22.97;;;19.57;;
11338;SDS011;5724;42.684;23.252;2023-03-03T22:32:44;20.90;;;18.70;;
11338;SDS011;5724;42.684;23.252;2023-03-03T22:35:10;20.50;;;18.30;;
11338;SDS011;5724;42.684;23.252;2023-03-03T22:37:36;21.20;;;18.73;;
11338;SDS011;5724;42.684;23.252;2023-03-03T22:40:02;20.67;;;18.57;;